sensor_id;sensor_type;location;lat;lon;timestamp;pressure;altitude;pressure_sealevel;temperature;humidity
8160;BME280;27404;52.398;9.646;2023-04-07T00:02:06;100918.22;;;2.94;100.00
8160;BME280;27404;52.398;9.646;2023-04-07T00:04:31;100909.59;;;2.67;100.00
8160;BME280;27404;52.398;9.646;2023-04-07T00:06:57;100904.59;;;2.64;100.00
8160;BME280;27404;52.398;9.646;2023-04-07T00:09:22;100913.91;;;2.85;100.00
8160;BME280;27404;52.398;9.646;2023-04-07T00:11:48;100916.59;;;2.85;100.00
8160;BME280;27404;52.398;9.646;2023-04-07T00:14:13;100907.63;;;2.92;100.00
8160;BME280;27404;52.398;9.646;2023-04-07T00:16:39;100919.53;;;2.75;100.00
8160;BME280;27404;52.398;9.646;2023-04-07T00:19:05;100910.06;;;2.79;100.00
8160;BME280;27404;52.398;9.646;2023-04-07T00:21:31;100909.47;;;2.60;100.00
8160;BME280;27404;52.398;9.646;2023-04-07T00:23:56;100912.28;;;2.67;100.00
8160;BME280;27404;52.398;9.646;2023-04-07T00:26:21;100900.75;;;3.05;100.00
8160;BME280;27404;52.398;9.646;2023-04-07T00:28:47;100913.97;;;3.00;100.00
8160;BME280;27404;52.398;9.646;2023-04-07T00:31:12;100907.56;;;2.69;100.00
8160;BME280;27404;52.398;9.646;2023-04-07T00:33:38;100908.38;;;2.46;100.00
8160;BME280;27404;52.398;9.646;2023-04-07T00:36:04;100927.16;;;2.31;100.00
8160;BME280;27404;52.398;9.646;2023-04-07T00:38:29;100916.50;;;2.30;100.00
8160;BME280;27404;52.398;9.646;2023-04-07T00:40:59;100915.47;;;2.39;100.00
8160;BME280;27404;52.398;9.646;2023-04-07T00:43:25;100913.66;;;2.31;100.00
8160;BME280;27404;52.398;9.646;2023-04-07T00:45:51;100910.00;;;2.16;100.00
8160;BME280;27404;52.398;9.646;2023-04-07T00:48:17;100910.88;;;2.00;100.00
8160;BME280;27404;52.398;9.646;2023-04-07T00:50:44;100911.53;;;2.02;100.00
8160;BME280;27404;52.398;9.646;2023-04-07T00:53:11;100908.66;;;2.12;100.00
8160;BME280;27404;52.398;9.646;2023-04-07T00:55:37;100902.13;;;1.98;100.00
8160;BME280;27404;52.398;9.646;2023-04-07T00:58:02;100906.34;;;1.92;100.00
8160;BME280;27404;52.398;9.646;2023-04-07T01:00:35;100902.63;;;2.01;100.00
8160;BME280;27404;52.398;9.646;2023-04-07T01:03:08;100913.50;;;2.25;100.00
8160;BME280;27404;52.398;9.646;2023-04-07T01:05:41;100912.19;;;2.12;100.00
8160;BME280;27404;52.398;9.646;2023-04-07T01:08:20;100908.53;;;1.97;100.00
8160;BME280;27404;52.398;9.646;2023-04-07T01:10:51;100905.19;;;1.86;100.00
8160;BME280;27404;52.398;9.646;2023-04-07T01:13:29;100912.44;;;1.77;100.00
8160;BME280;27404;52.398;9.646;2023-04-07T01:15:59;100893.28;;;1.64;100.00
8160;BME280;27404;52.398;9.646;2023-04-07T01:18:31;100901.16;;;1.74;100.00
8160;BME280;27404;52.398;9.646;2023-04-07T01:21:08;100896.59;;;1.74;100.00
8160;BME280;27404;52.398;9.646;2023-04-07T01:26:17;100895.22;;;1.87;100.00
8160;BME280;27404;52.398;9.646;2023-04-07T01:28:55;100898.59;;;1.81;100.00
8160;BME280;27404;52.398;9.646;2023-04-07T01:31:22;100901.66;;;1.69;100.00
8160;BME280;27404;52.398;9.646;2023-04-07T01:33:51;100899.63;;;1.71;100.00
8160;BME280;27404;52.398;9.646;2023-04-07T01:36:17;100898.28;;;1.75;100.00
8160;BME280;27404;52.398;9.646;2023-04-07T01:38:44;100894.69;;;2.00;100.00
8160;BME280;27404;52.398;9.646;2023-04-07T01:41:10;100898.91;;;2.02;100.00
8160;BME280;27404;52.398;9.646;2023-04-07T01:43:39;100895.34;;;2.02;100.00
8160;BME280;27404;52.398;9.646;2023-04-07T01:46:05;100894.88;;;1.98;100.00
8160;BME280;27404;52.398;9.646;2023-04-07T01:48:32;100899.78;;;1.86;100.00
8160;BME280;27404;52.398;9.646;2023-04-07T01:50:59;100892.72;;;1.85;100.00
8160;BME280;27404;52.398;9.646;2023-04-07T01:53:26;100898.59;;;1.81;100.00
8160;BME280;27404;52.398;9.646;2023-04-07T01:55:52;100894.28;;;1.63;100.00
8160;BME280;27404;52.398;9.646;2023-04-07T01:58:17;100891.94;;;1.52;100.00
8160;BME280;27404;52.398;9.646;2023-04-07T02:00:43;100889.91;;;1.62;100.00
8160;BME280;27404;52.398;9.646;2023-04-07T02:03:12;100895.44;;;1.77;100.00
8160;BME280;27404;52.398;9.646;2023-04-07T02:05:45;100890.03;;;1.77;100.00
8160;BME280;27404;52.398;9.646;2023-04-07T02:08:13;100895.25;;;1.78;100.00
8160;BME280;27404;52.398;9.646;2023-04-07T02:10:41;100898.13;;;1.69;100.00
8160;BME280;27404;52.398;9.646;2023-04-07T02:13:09;100892.75;;;1.52;100.00
8160;BME280;27404;52.398;9.646;2023-04-07T02:15:39;100893.09;;;1.49;100.00
8160;BME280;27404;52.398;9.646;2023-04-07T02:18:06;100894.28;;;1.38;100.00
8160;BME280;27404;52.398;9.646;2023-04-07T02:20:35;100889.38;;;1.42;100.00
8160;BME280;27404;52.398;9.646;2023-04-07T02:23:02;100893.47;;;1.29;100.00
8160;BME280;27404;52.398;9.646;2023-04-07T02:25:30;100896.16;;;1.21;100.00
8160;BME280;27404;52.398;9.646;2023-04-07T02:27:57;100890.56;;;1.06;100.00
8160;BME280;27404;52.398;9.646;2023-04-07T02:30:23;100898.66;;;0.98;100.00
8160;BME280;27404;52.398;9.646;2023-04-07T02:32:49;100897.47;;;1.09;100.00
8160;BME280;27404;52.398;9.646;2023-04-07T02:35:15;100900.69;;;1.37;100.00
8160;BME280;27404;52.398;9.646;2023-04-07T02:37:42;100899.34;;;1.50;100.00
8160;BME280;27404;52.398;9.646;2023-04-07T02:40:08;100902.38;;;1.38;100.00
8160;BME280;27404;52.398;9.646;2023-04-07T02:42:34;100909.78;;;1.28;100.00
8160;BME280;27404;52.398;9.646;2023-04-07T02:45:01;100903.19;;;1.39;100.00
8160;BME280;27404;52.398;9.646;2023-04-07T02:47:26;100906.06;;;1.29;100.00
8160;BME280;27404;52.398;9.646;2023-04-07T02:49:52;100910.94;;;1.42;100.00
8160;BME280;27404;52.398;9.646;2023-04-07T02:52:17;100902.84;;;1.58;100.00
8160;BME280;27404;52.398;9.646;2023-04-07T02:54:43;100905.56;;;1.50;100.00
8160;BME280;27404;52.398;9.646;2023-04-07T02:57:08;100910.63;;;1.28;100.00
8160;BME280;27404;52.398;9.646;2023-04-07T02:59:34;100910.75;;;1.10;100.00
8160;BME280;27404;52.398;9.646;2023-04-07T03:01:59;100905.91;;;1.14;100.00
8160;BME280;27404;52.398;9.646;2023-04-07T03:04:25;100899.84;;;1.20;100.00
8160;BME280;27404;52.398;9.646;2023-04-07T03:06:50;100904.22;;;1.29;100.00
8160;BME280;27404;52.398;9.646;2023-04-07T03:09:16;100899.16;;;1.43;100.00
8160;BME280;27404;52.398;9.646;2023-04-07T03:11:41;100889.41;;;1.25;100.00
8160;BME280;27404;52.398;9.646;2023-04-07T03:14:07;100909.41;;;1.06;100.00
8160;BME280;27404;52.398;9.646;2023-04-07T03:16:32;100901.31;;;1.06;100.00
8160;BME280;27404;52.398;9.646;2023-04-07T03:18:57;100898.16;;;1.11;100.00
8160;BME280;27404;52.398;9.646;2023-04-07T03:21:23;100906.56;;;1.16;100.00
8160;BME280;27404;52.398;9.646;2023-04-07T03:23:48;100896.94;;;1.05;100.00
8160;BME280;27404;52.398;9.646;2023-04-07T03:26:14;100904.69;;;1.16;100.00
8160;BME280;27404;52.398;9.646;2023-04-07T03:28:40;100909.09;;;1.26;100.00
8160;BME280;27404;52.398;9.646;2023-04-07T03:31:05;100911.59;;;1.36;100.00
8160;BME280;27404;52.398;9.646;2023-04-07T03:33:31;100902.38;;;1.46;100.00
8160;BME280;27404;52.398;9.646;2023-04-07T03:35:56;100896.66;;;1.50;100.00
8160;BME280;27404;52.398;9.646;2023-04-07T03:38:22;100895.97;;;1.39;100.00
8160;BME280;27404;52.398;9.646;2023-04-07T03:40:47;100901.19;;;1.08;100.00
8160;BME280;27404;52.398;9.646;2023-04-07T03:43:13;100902.69;;;1.18;100.00
8160;BME280;27404;52.398;9.646;2023-04-07T03:45:43;100899.19;;;1.26;100.00
8160;BME280;27404;52.398;9.646;2023-04-07T03:48:08;100902.53;;;1.20;100.00
8160;BME280;27404;52.398;9.646;2023-04-07T03:50:40;100896.28;;;1.11;100.00
8160;BME280;27404;52.398;9.646;2023-04-07T03:53:06;100898.66;;;0.98;100.00
8160;BME280;27404;52.398;9.646;2023-04-07T03:55:33;100894.06;;;0.82;100.00
8160;BME280;27404;52.398;9.646;2023-04-07T03:57:58;100897.19;;;0.52;100.00
8160;BME280;27404;52.398;9.646;2023-04-07T04:00:24;100903.06;;;0.48;100.00
8160;BME280;27404;52.398;9.646;2023-04-07T04:02:51;100904.25;;;0.53;100.00
8160;BME280;27404;52.398;9.646;2023-04-07T04:05:17;100900.19;;;0.49;100.00
8160;BME280;27404;52.398;9.646;2023-04-07T04:07:42;100898.34;;;0.50;100.00
8160;BME280;27404;52.398;9.646;2023-04-07T04:10:08;100914.25;;;0.35;100.00
8160;BME280;27404;52.398;9.646;2023-04-07T04:12:33;100910.94;;;0.49;100.00
8160;BME280;27404;52.398;9.646;2023-04-07T04:14:59;100919.78;;;0.76;100.00
8160;BME280;27404;52.398;9.646;2023-04-07T04:17:24;100917.53;;;0.55;100.00
8160;BME280;27404;52.398;9.646;2023-04-07T04:19:51;100920.84;;;0.40;100.00
8160;BME280;27404;52.398;9.646;2023-04-07T04:22:16;100917.06;;;0.25;100.00
8160;BME280;27404;52.398;9.646;2023-04-07T04:24:42;100927.31;;;0.56;100.00
8160;BME280;27404;52.398;9.646;2023-04-07T04:27:07;100922.09;;;0.63;100.00
8160;BME280;27404;52.398;9.646;2023-04-07T04:29:33;100927.81;;;0.59;100.00
8160;BME280;27404;52.398;9.646;2023-04-07T04:31:58;100926.59;;;0.46;100.00
8160;BME280;27404;52.398;9.646;2023-04-07T04:34:24;100926.72;;;0.44;100.00
8160;BME280;27404;52.398;9.646;2023-04-07T04:36:50;100940.03;;;0.46;100.00
8160;BME280;27404;52.398;9.646;2023-04-07T04:39:15;100937.63;;;0.34;100.00
8160;BME280;27404;52.398;9.646;2023-04-07T04:41:41;100933.50;;;0.56;100.00
8160;BME280;27404;52.398;9.646;2023-04-07T04:44:06;100939.59;;;0.67;100.00
8160;BME280;27404;52.398;9.646;2023-04-07T04:46:32;100938.31;;;0.87;100.00
8160;BME280;27404;52.398;9.646;2023-04-07T04:48:57;100951.47;;;0.91;100.00
8160;BME280;27404;52.398;9.646;2023-04-07T04:51:23;100942.72;;;0.97;100.00
8160;BME280;27404;52.398;9.646;2023-04-07T04:53:48;100947.09;;;0.90;100.00
8160;BME280;27404;52.398;9.646;2023-04-07T04:56:14;100952.97;;;0.93;100.00
8160;BME280;27404;52.398;9.646;2023-04-07T04:58:39;100955.53;;;1.11;100.00
8160;BME280;27404;52.398;9.646;2023-04-07T05:01:10;100949.78;;;0.98;100.00
8160;BME280;27404;52.398;9.646;2023-04-07T05:03:36;100950.97;;;1.03;100.00
8160;BME280;27404;52.398;9.646;2023-04-07T05:06:01;100945.75;;;1.02;100.00
8160;BME280;27404;52.398;9.646;2023-04-07T05:08:27;100957.53;;;0.93;100.00
8160;BME280;27404;52.398;9.646;2023-04-07T05:10:52;100957.31;;;0.86;100.00
8160;BME280;27404;52.398;9.646;2023-04-07T05:13:19;100953.66;;;1.03;100.00
8160;BME280;27404;52.398;9.646;2023-04-07T05:15:44;100969.34;;;1.25;100.00
8160;BME280;27404;52.398;9.646;2023-04-07T05:18:10;100961.09;;;1.35;100.00
8160;BME280;27404;52.398;9.646;2023-04-07T05:20:35;100967.69;;;1.32;100.00
8160;BME280;27404;52.398;9.646;2023-04-07T05:23:01;100964.50;;;1.28;100.00
8160;BME280;27404;52.398;9.646;2023-04-07T05:25:27;100971.56;;;1.54;100.00
8160;BME280;27404;52.398;9.646;2023-04-07T05:27:52;100963.50;;;1.62;100.00
8160;BME280;27404;52.398;9.646;2023-04-07T05:30:18;100967.19;;;1.70;100.00
8160;BME280;27404;52.398;9.646;2023-04-07T05:32:43;100964.84;;;1.91;100.00
8160;BME280;27404;52.398;9.646;2023-04-07T05:35:09;100961.94;;;2.01;100.00
8160;BME280;27404;52.398;9.646;2023-04-07T05:37:34;100967.66;;;2.15;100.00
8160;BME280;27404;52.398;9.646;2023-04-07T05:40:00;100963.94;;;2.16;100.00
8160;BME280;27404;52.398;9.646;2023-04-07T05:42:25;100967.78;;;2.21;100.00
8160;BME280;27404;52.398;9.646;2023-04-07T05:44:51;100970.34;;;2.23;100.00
8160;BME280;27404;52.398;9.646;2023-04-07T05:47:16;100969.44;;;2.39;100.00
8160;BME280;27404;52.398;9.646;2023-04-07T05:49:41;100972.94;;;2.48;100.00
8160;BME280;27404;52.398;9.646;2023-04-07T05:52:13;100965.50;;;2.50;100.00
8160;BME280;27404;52.398;9.646;2023-04-07T05:54:39;100977.13;;;2.59;100.00
8160;BME280;27404;52.398;9.646;2023-04-07T05:57:05;100964.44;;;2.67;100.00
8160;BME280;27404;52.398;9.646;2023-04-07T05:59:32;100981.97;;;2.72;100.00
8160;BME280;27404;52.398;9.646;2023-04-07T06:01:57;100987.72;;;2.69;100.00
8160;BME280;27404;52.398;9.646;2023-04-07T06:04:23;100983.78;;;2.79;100.00
8160;BME280;27404;52.398;9.646;2023-04-07T06:06:48;100976.81;;;2.93;100.00
8160;BME280;27404;52.398;9.646;2023-04-07T06:09:13;100974.84;;;4.64;100.00
8160;BME280;27404;52.398;9.646;2023-04-07T06:11:39;100987.69;;;6.99;96.46
8160;BME280;27404;52.398;9.646;2023-04-07T06:14:05;100994.91;;;8.75;77.58
8160;BME280;27404;52.398;9.646;2023-04-07T06:16:30;101002.78;;;9.42;70.36
8160;BME280;27404;52.398;9.646;2023-04-07T06:18:56;101009.94;;;10.51;62.96
8160;BME280;27404;52.398;9.646;2023-04-07T06:21:21;101003.75;;;11.43;59.11
8160;BME280;27404;52.398;9.646;2023-04-07T06:23:47;101012.00;;;8.96;63.60
8160;BME280;27404;52.398;9.646;2023-04-07T06:26:12;101002.09;;;7.82;67.92
8160;BME280;27404;52.398;9.646;2023-04-07T06:28:38;101004.81;;;6.51;74.27
8160;BME280;27404;52.398;9.646;2023-04-07T06:31:04;101007.19;;;5.82;82.30
8160;BME280;27404;52.398;9.646;2023-04-07T06:33:29;101012.34;;;5.33;87.94
8160;BME280;27404;52.398;9.646;2023-04-07T06:35:55;101012.03;;;5.07;92.38
8160;BME280;27404;52.398;9.646;2023-04-07T06:38:21;101012.72;;;4.94;95.24
8160;BME280;27404;52.398;9.646;2023-04-07T06:40:47;101020.66;;;4.95;95.28
8160;BME280;27404;52.398;9.646;2023-04-07T06:43:12;101016.94;;;4.96;96.89
8160;BME280;27404;52.398;9.646;2023-04-07T06:45:38;101020.09;;;5.00;95.74
8160;BME280;27404;52.398;9.646;2023-04-07T06:48:03;101021.81;;;4.86;97.02
8160;BME280;27404;52.398;9.646;2023-04-07T06:50:29;101024.13;;;4.89;96.85
8160;BME280;27404;52.398;9.646;2023-04-07T06:52:54;101030.75;;;4.86;97.51
8160;BME280;27404;52.398;9.646;2023-04-07T06:55:20;101018.13;;;4.94;96.80
8160;BME280;27404;52.398;9.646;2023-04-07T06:57:45;101022.25;;;4.89;96.25
8160;BME280;27404;52.398;9.646;2023-04-07T07:00:11;101032.06;;;4.91;94.69
8160;BME280;27404;52.398;9.646;2023-04-07T07:02:36;101030.56;;;5.03;94.77
8160;BME280;27404;52.398;9.646;2023-04-07T07:05:02;101031.38;;;5.18;95.92
8160;BME280;27404;52.398;9.646;2023-04-07T07:07:29;101027.09;;;5.31;93.15
8160;BME280;27404;52.398;9.646;2023-04-07T07:09:54;101038.31;;;5.43;91.00
8160;BME280;27404;52.398;9.646;2023-04-07T07:12:20;101032.13;;;5.49;87.92
8160;BME280;27404;52.398;9.646;2023-04-07T07:14:45;101037.94;;;5.46;87.65
8160;BME280;27404;52.398;9.646;2023-04-07T07:17:11;101036.19;;;5.60;87.92
8160;BME280;27404;52.398;9.646;2023-04-07T07:19:37;101039.75;;;5.60;87.56
8160;BME280;27404;52.398;9.646;2023-04-07T07:22:03;101042.97;;;5.71;88.33
8160;BME280;27404;52.398;9.646;2023-04-07T07:24:29;101054.28;;;5.74;87.68
8160;BME280;27404;52.398;9.646;2023-04-07T07:26:58;101053.25;;;5.75;86.64
8160;BME280;27404;52.398;9.646;2023-04-07T07:29:24;101047.50;;;5.85;85.79
8160;BME280;27404;52.398;9.646;2023-04-07T07:31:49;101055.91;;;5.90;83.99
8160;BME280;27404;52.398;9.646;2023-04-07T07:34:14;101057.91;;;6.03;82.99
8160;BME280;27404;52.398;9.646;2023-04-07T07:36:40;101055.72;;;6.42;80.51
8160;BME280;27404;52.398;9.646;2023-04-07T07:39:06;101063.28;;;6.47;80.40
8160;BME280;27404;52.398;9.646;2023-04-07T07:41:31;101059.91;;;6.73;79.52
8160;BME280;27404;52.398;9.646;2023-04-07T07:43:57;101054.72;;;6.78;78.55
8160;BME280;27404;52.398;9.646;2023-04-07T07:46:22;101059.00;;;7.01;76.17
8160;BME280;27404;52.398;9.646;2023-04-07T07:48:50;101058.94;;;7.36;75.31
8160;BME280;27404;52.398;9.646;2023-04-07T07:51:16;101065.44;;;7.35;74.87
8160;BME280;27404;52.398;9.646;2023-04-07T07:53:43;101057.72;;;7.46;74.75
8160;BME280;27404;52.398;9.646;2023-04-07T07:56:09;101058.56;;;7.46;73.13
8160;BME280;27404;52.398;9.646;2023-04-07T07:58:34;101069.84;;;7.43;74.35
8160;BME280;27404;52.398;9.646;2023-04-07T08:01:00;101066.47;;;7.34;76.09
8160;BME280;27404;52.398;9.646;2023-04-07T08:03:25;101069.38;;;7.26;74.30
8160;BME280;27404;52.398;9.646;2023-04-07T08:05:50;101073.34;;;7.23;74.12
8160;BME280;27404;52.398;9.646;2023-04-07T08:08:16;101072.09;;;7.26;73.44
8160;BME280;27404;52.398;9.646;2023-04-07T08:10:41;101073.16;;;7.32;73.50
8160;BME280;27404;52.398;9.646;2023-04-07T08:13:07;101076.88;;;7.24;72.36
8160;BME280;27404;52.398;9.646;2023-04-07T08:15:32;101079.25;;;7.40;73.38
8160;BME280;27404;52.398;9.646;2023-04-07T08:17:58;101076.97;;;7.44;71.95
8160;BME280;27404;52.398;9.646;2023-04-07T08:20:28;101082.84;;;7.48;71.70
8160;BME280;27404;52.398;9.646;2023-04-07T08:22:53;101081.81;;;7.55;72.71
8160;BME280;27404;52.398;9.646;2023-04-07T08:25:19;101079.31;;;7.67;70.38
8160;BME280;27404;52.398;9.646;2023-04-07T08:27:45;101086.09;;;7.92;70.66
8160;BME280;27404;52.398;9.646;2023-04-07T08:30:10;101081.69;;;7.91;69.19
8160;BME280;27404;52.398;9.646;2023-04-07T08:32:37;101083.38;;;8.05;69.48
8160;BME280;27404;52.398;9.646;2023-04-07T08:35:03;101078.97;;;8.04;68.20
8160;BME280;27404;52.398;9.646;2023-04-07T08:37:30;101079.81;;;8.11;68.28
8160;BME280;27404;52.398;9.646;2023-04-07T08:39:55;101086.97;;;8.19;65.40
8160;BME280;27404;52.398;9.646;2023-04-07T08:42:23;101088.41;;;8.28;66.20
8160;BME280;27404;52.398;9.646;2023-04-07T08:44:52;101079.63;;;8.47;66.00
8160;BME280;27404;52.398;9.646;2023-04-07T08:47:18;101089.94;;;8.58;64.79
8160;BME280;27404;52.398;9.646;2023-04-07T08:49:45;101094.50;;;8.84;63.60
8160;BME280;27404;52.398;9.646;2023-04-07T08:52:17;101094.00;;;9.01;64.67
8160;BME280;27404;52.398;9.646;2023-04-07T08:54:47;101090.47;;;9.00;65.81
8160;BME280;27404;52.398;9.646;2023-04-07T08:57:13;101104.16;;;8.80;62.43
8160;BME280;27404;52.398;9.646;2023-04-07T08:59:41;101107.50;;;8.76;61.85
8160;BME280;27404;52.398;9.646;2023-04-07T09:02:09;101098.69;;;8.73;60.85
8160;BME280;27404;52.398;9.646;2023-04-07T09:04:35;101096.13;;;8.99;61.45
8160;BME280;27404;52.398;9.646;2023-04-07T09:07:01;101092.50;;;9.18;62.14
8160;BME280;27404;52.398;9.646;2023-04-07T09:09:27;101105.88;;;9.33;61.23
8160;BME280;27404;52.398;9.646;2023-04-07T09:11:53;101105.84;;;9.40;59.49
8160;BME280;27404;52.398;9.646;2023-04-07T09:14:20;101102.28;;;9.40;60.17
8160;BME280;27404;52.398;9.646;2023-04-07T09:16:46;101102.88;;;9.48;61.34
8160;BME280;27404;52.398;9.646;2023-04-07T09:19:11;101109.72;;;9.65;61.81
8160;BME280;27404;52.398;9.646;2023-04-07T09:21:50;101101.69;;;9.76;59.03
8160;BME280;27404;52.398;9.646;2023-04-07T09:24:26;101112.44;;;10.03;60.31
8160;BME280;27404;52.398;9.646;2023-04-07T09:29:36;101109.19;;;10.20;60.46
8160;BME280;27404;52.398;9.646;2023-04-07T09:32:02;101102.47;;;10.48;58.70
8160;BME280;27404;52.398;9.646;2023-04-07T09:34:33;101109.66;;;10.68;57.04
8160;BME280;27404;52.398;9.646;2023-04-07T09:36:59;101100.47;;;10.80;56.99
8160;BME280;27404;52.398;9.646;2023-04-07T09:39:27;101099.25;;;10.76;55.63
8160;BME280;27404;52.398;9.646;2023-04-07T09:41:52;101104.03;;;10.62;53.39
8160;BME280;27404;52.398;9.646;2023-04-07T09:44:21;101098.59;;;10.81;55.30
8160;BME280;27404;52.398;9.646;2023-04-07T09:47:07;101099.03;;;10.96;54.47
8160;BME280;27404;52.398;9.646;2023-04-07T09:49:32;101099.59;;;11.05;54.55
8160;BME280;27404;52.398;9.646;2023-04-07T09:52:12;101090.91;;;10.90;53.07
8160;BME280;27404;52.398;9.646;2023-04-07T09:54:39;101099.81;;;11.04;52.47
8160;BME280;27404;52.398;9.646;2023-04-07T09:57:10;101099.28;;;11.14;52.87
8160;BME280;27404;52.398;9.646;2023-04-07T09:59:37;101101.78;;;11.15;52.58
8160;BME280;27404;52.398;9.646;2023-04-07T10:02:04;101109.69;;;11.23;52.47
8160;BME280;27404;52.398;9.646;2023-04-07T10:04:30;101109.44;;;11.44;50.76
8160;BME280;27404;52.398;9.646;2023-04-07T10:06:57;101107.03;;;11.35;52.22
8160;BME280;27404;52.398;9.646;2023-04-07T10:09:24;101108.06;;;11.53;52.86
8160;BME280;27404;52.398;9.646;2023-04-07T10:11:51;101100.03;;;11.70;49.44
8160;BME280;27404;52.398;9.646;2023-04-07T10:14:19;101104.09;;;11.67;49.78
8160;BME280;27404;52.398;9.646;2023-04-07T10:16:46;101098.75;;;11.73;49.24
8160;BME280;27404;52.398;9.646;2023-04-07T10:19:12;101094.84;;;11.80;49.69
8160;BME280;27404;52.398;9.646;2023-04-07T10:21:42;101098.63;;;11.98;51.31
8160;BME280;27404;52.398;9.646;2023-04-07T10:26:57;101100.00;;;12.19;50.56
8160;BME280;27404;52.398;9.646;2023-04-07T10:29:24;101103.88;;;11.99;47.51
8160;BME280;27404;52.398;9.646;2023-04-07T10:31:51;101102.88;;;12.36;49.19
8160;BME280;27404;52.398;9.646;2023-04-07T10:34:17;101103.19;;;12.04;47.56
8160;BME280;27404;52.398;9.646;2023-04-07T10:37:12;101104.72;;;12.00;47.79
8160;BME280;27404;52.398;9.646;2023-04-07T10:39:38;101103.00;;;12.18;51.10
8160;BME280;27404;52.398;9.646;2023-04-07T10:42:05;101106.19;;;12.14;50.77
8160;BME280;27404;52.398;9.646;2023-04-07T10:47:05;101108.28;;;12.00;50.65
8160;BME280;27404;52.398;9.646;2023-04-07T10:49:32;101114.84;;;11.99;49.15
8160;BME280;27404;52.398;9.646;2023-04-07T10:54:36;101114.88;;;11.81;51.08
8160;BME280;27404;52.398;9.646;2023-04-07T10:59:31;101111.59;;;11.41;48.79
8160;BME280;27404;52.398;9.646;2023-04-07T11:04:48;101108.31;;;11.14;50.89
8160;BME280;27404;52.398;9.646;2023-04-07T11:07:14;101110.06;;;11.27;51.38
8160;BME280;27404;52.398;9.646;2023-04-07T11:09:40;101108.03;;;11.22;52.39
8160;BME280;27404;52.398;9.646;2023-04-07T11:12:06;101107.50;;;11.14;49.74
8160;BME280;27404;52.398;9.646;2023-04-07T11:14:33;101113.19;;;11.12;48.45
8160;BME280;27404;52.398;9.646;2023-04-07T11:17:02;101105.97;;;10.99;49.13
8160;BME280;27404;52.398;9.646;2023-04-07T11:19:28;101108.94;;;11.16;49.29
8160;BME280;27404;52.398;9.646;2023-04-07T11:22:13;101106.94;;;11.05;50.27
8160;BME280;27404;52.398;9.646;2023-04-07T11:24:38;101100.38;;;11.13;50.47
8160;BME280;27404;52.398;9.646;2023-04-07T11:27:04;101100.88;;;11.21;48.54
8160;BME280;27404;52.398;9.646;2023-04-07T11:29:31;101113.03;;;11.07;48.85
8160;BME280;27404;52.398;9.646;2023-04-07T11:31:58;101106.28;;;11.09;48.76
8160;BME280;27404;52.398;9.646;2023-04-07T11:34:31;101113.03;;;11.07;49.31
8160;BME280;27404;52.398;9.646;2023-04-07T11:36:58;101115.94;;;11.12;49.30
8160;BME280;27404;52.398;9.646;2023-04-07T11:39:42;101106.59;;;11.20;49.06
8160;BME280;27404;52.398;9.646;2023-04-07T11:42:10;101108.94;;;11.16;49.64
8160;BME280;27404;52.398;9.646;2023-04-07T11:44:44;101105.75;;;11.19;47.43
8160;BME280;27404;52.398;9.646;2023-04-07T11:47:09;101111.63;;;11.23;48.85
8160;BME280;27404;52.398;9.646;2023-04-07T11:49:43;101106.97;;;11.23;47.83
8160;BME280;27404;52.398;9.646;2023-04-07T11:52:09;101109.69;;;11.42;46.71
8160;BME280;27404;52.398;9.646;2023-04-07T11:54:41;101109.66;;;11.61;48.30
8160;BME280;27404;52.398;9.646;2023-04-07T11:57:07;101106.78;;;11.55;47.10
8160;BME280;27404;52.398;9.646;2023-04-07T11:59:36;101101.03;;;11.45;46.69
8160;BME280;27404;52.398;9.646;2023-04-07T12:02:02;101103.00;;;11.57;47.73
8160;BME280;27404;52.398;9.646;2023-04-07T12:04:28;101103.59;;;11.59;46.53
8160;BME280;27404;52.398;9.646;2023-04-07T12:07:08;101104.13;;;11.49;47.08
8160;BME280;27404;52.398;9.646;2023-04-07T12:09:34;101108.19;;;11.46;47.93
8160;BME280;27404;52.398;9.646;2023-04-07T12:12:01;101112.75;;;11.34;47.66
8160;BME280;27404;52.398;9.646;2023-04-07T12:14:27;101112.50;;;11.35;48.52
8160;BME280;27404;52.398;9.646;2023-04-07T12:16:53;101114.63;;;11.33;47.18
8160;BME280;27404;52.398;9.646;2023-04-07T12:19:21;101116.94;;;11.18;46.85
8160;BME280;27404;52.398;9.646;2023-04-07T12:21:48;101121.50;;;11.24;48.52
8160;BME280;27404;52.398;9.646;2023-04-07T12:24:13;101114.88;;;11.32;48.52
8160;BME280;27404;52.398;9.646;2023-04-07T12:26:38;101118.13;;;11.40;48.67
8160;BME280;27404;52.398;9.646;2023-04-07T12:29:04;101119.03;;;11.34;48.66
8160;BME280;27404;52.398;9.646;2023-04-07T12:31:30;101113.34;;;11.36;48.19
8160;BME280;27404;52.398;9.646;2023-04-07T12:33:58;101102.16;;;11.37;49.27
8160;BME280;27404;52.398;9.646;2023-04-07T12:36:24;101117.91;;;11.42;49.01
8160;BME280;27404;52.398;9.646;2023-04-07T12:38:52;101112.59;;;11.29;46.46
8160;BME280;27404;52.398;9.646;2023-04-07T12:41:17;101113.03;;;11.44;48.19
8160;BME280;27404;52.398;9.646;2023-04-07T12:43:43;101120.41;;;11.44;46.69
8160;BME280;27404;52.398;9.646;2023-04-07T12:46:08;101124.66;;;11.39;45.93
8160;BME280;27404;52.398;9.646;2023-04-07T12:48:34;101120.72;;;11.35;46.06
8160;BME280;27404;52.398;9.646;2023-04-07T12:51:00;101124.81;;;11.45;46.41
8160;BME280;27404;52.398;9.646;2023-04-07T12:53:26;101122.78;;;11.40;46.87
8160;BME280;27404;52.398;9.646;2023-04-07T12:55:51;101125.06;;;11.43;47.69
8160;BME280;27404;52.398;9.646;2023-04-07T12:58:17;101112.28;;;11.55;47.20
8160;BME280;27404;52.398;9.646;2023-04-07T13:00:43;101120.13;;;11.64;47.27
8160;BME280;27404;52.398;9.646;2023-04-07T13:03:09;101121.81;;;11.65;47.63
8160;BME280;27404;52.398;9.646;2023-04-07T13:05:34;101121.81;;;11.65;47.46
8160;BME280;27404;52.398;9.646;2023-04-07T13:08:00;101118.91;;;11.78;47.95
8160;BME280;27404;52.398;9.646;2023-04-07T13:10:25;101109.75;;;11.84;47.99
8160;BME280;27404;52.398;9.646;2023-04-07T13:12:51;101118.41;;;11.69;47.21
8160;BME280;27404;52.398;9.646;2023-04-07T13:15:17;101106.75;;;11.74;47.78
8160;BME280;27404;52.398;9.646;2023-04-07T13:17:43;101107.34;;;11.76;48.87
8160;BME280;27404;52.398;9.646;2023-04-07T13:20:08;101115.94;;;11.80;47.58